createdAt,value
2019-02-18T00:01:56.378Z,2.80
2019-02-18T00:07:15.734Z,2.70
2019-02-18T00:09:56.888Z,2.70
2019-02-18T00:12:38.114Z,2.70
2019-02-18T00:15:18.837Z,2.60
2019-02-18T00:17:59.342Z,2.70
2019-02-18T00:20:40.380Z,2.60
2019-02-18T00:23:21.650Z,2.60
2019-02-18T00:26:02.325Z,2.60
2019-02-18T00:28:42.862Z,2.60
2019-02-18T00:31:23.432Z,2.50
2019-02-18T00:34:04.067Z,2.50
2019-02-18T00:36:44.776Z,2.50
2019-02-18T00:39:25.604Z,2.40
2019-02-18T00:42:06.374Z,2.40
2019-02-18T00:44:47.337Z,2.40
2019-02-18T00:47:28.110Z,2.40
2019-02-18T00:50:08.743Z,2.30
2019-02-18T00:52:49.448Z,2.30
2019-02-18T00:55:30.544Z,2.30
2019-02-18T00:58:11.251Z,2.30
2019-02-18T01:00:51.980Z,2.30
2019-02-18T01:03:33.247Z,2.40
2019-02-18T01:06:14.033Z,2.30
2019-02-18T01:08:54.873Z,2.30
2019-02-18T01:11:36.169Z,2.20
2019-02-18T01:14:16.735Z,2.20
2019-02-18T01:16:57.879Z,2.30
2019-02-18T01:19:38.549Z,2.20
2019-02-18T01:22:19.248Z,2.10
2019-02-18T01:24:59.808Z,2.10
2019-02-18T01:27:40.302Z,2.10
2019-02-18T01:30:21.042Z,2.10
2019-02-18T01:33:01.657Z,2.10
2019-02-18T01:35:42.936Z,2.10
2019-02-18T01:38:23.467Z,2.10
2019-02-18T01:41:04.579Z,2.10
2019-02-18T01:43:45.475Z,2.00
2019-02-18T01:46:26.165Z,2.00
2019-02-18T01:49:06.778Z,2.00
2019-02-18T01:51:47.498Z,2.00
2019-02-18T01:54:28.282Z,2.00
2019-02-18T01:57:08.977Z,2.00
2019-02-18T01:59:49.765Z,1.90
2019-02-18T02:02:30.502Z,1.90
2019-02-18T02:07:56.303Z,1.80
2019-02-18T02:10:31.266Z,1.90
2019-02-18T02:13:12.474Z,1.80
2019-02-18T02:18:32.032Z,1.70
2019-02-18T02:21:12.656Z,1.80
2019-02-18T02:23:53.424Z,1.80
2019-02-18T02:26:33.807Z,1.80
2019-02-18T02:29:14.791Z,1.90
2019-02-18T02:31:56.047Z,1.90
2019-02-18T02:34:36.843Z,1.90
2019-02-18T02:37:18.095Z,1.80
2019-02-18T02:39:58.803Z,1.70
2019-02-18T02:42:39.623Z,1.70
2019-02-18T02:45:20.287Z,1.60
2019-02-18T02:48:00.879Z,1.60
2019-02-18T02:50:41.626Z,1.60
2019-02-18T02:53:22.458Z,1.60
2019-02-18T02:56:03.557Z,1.50
2019-02-18T02:58:44.866Z,1.40
2019-02-18T03:04:33.024Z,1.40
2019-02-18T03:07:13.786Z,1.30
2019-02-18T03:09:55.058Z,1.40
2019-02-18T03:12:35.488Z,1.40
2019-02-18T03:15:16.460Z,1.30
2019-02-18T03:17:57.044Z,1.30
2019-02-18T03:20:37.769Z,1.30
2019-02-18T03:23:18.319Z,1.30
2019-02-18T03:25:59.185Z,1.40
2019-02-18T03:28:39.931Z,1.40
2019-02-18T03:31:20.650Z,1.30
2019-02-18T03:34:01.522Z,1.30
2019-02-18T03:36:42.154Z,1.30
2019-02-18T03:39:23.061Z,1.30
2019-02-18T03:42:04.198Z,1.30
2019-02-18T03:44:44.886Z,1.20
2019-02-18T03:47:25.559Z,1.20
2019-02-18T03:50:06.587Z,1.20
2019-02-18T03:52:47.334Z,1.20
2019-02-18T03:55:28.017Z,1.20
2019-02-18T03:58:09.096Z,1.20
2019-02-18T04:00:49.974Z,1.20
2019-02-18T04:03:30.938Z,1.10
2019-02-18T04:06:11.823Z,1.10
2019-02-18T04:08:52.896Z,1.10
2019-02-18T04:11:33.801Z,1.10
2019-02-18T04:17:10.881Z,1.10
2019-02-18T04:19:52.398Z,1.00
2019-02-18T04:22:32.883Z,1.00
2019-02-18T04:25:13.589Z,1.00
2019-02-18T04:27:54.859Z,1.00
2019-02-18T04:30:35.690Z,1.00
2019-02-18T04:33:16.500Z,1.00
2019-02-18T04:35:57.237Z,1.00
2019-02-18T04:38:37.988Z,0.90
2019-02-18T04:41:18.659Z,1.00
2019-02-18T04:43:59.666Z,0.90
2019-02-18T04:46:40.402Z,0.90
2019-02-18T04:49:21.084Z,0.80
2019-02-18T04:52:02.067Z,0.80
2019-02-18T04:54:42.574Z,0.80
2019-02-18T04:57:23.167Z,0.70
2019-02-18T05:02:42.956Z,0.70
2019-02-18T05:05:23.803Z,0.70
2019-02-18T05:08:04.676Z,0.70
2019-02-18T05:10:45.287Z,0.80
2019-02-18T05:13:26.019Z,0.80
2019-02-18T05:16:07.160Z,0.80
2019-02-18T05:18:48.351Z,0.70
2019-02-18T05:21:29.144Z,0.70
2019-02-18T05:24:10.214Z,0.60
2019-02-18T05:26:50.836Z,0.60
2019-02-18T05:29:31.951Z,0.50
2019-02-18T05:32:12.620Z,0.50
2019-02-18T05:34:53.567Z,0.50
2019-02-18T05:37:34.155Z,0.50
2019-02-18T05:40:14.977Z,0.50
2019-02-18T05:42:55.792Z,0.60
2019-02-18T05:45:36.634Z,0.70
2019-02-18T05:48:17.389Z,0.70
2019-02-18T05:50:58.154Z,0.70
2019-02-18T05:53:39.131Z,0.60
2019-02-18T05:56:19.797Z,0.50
2019-02-18T05:59:00.349Z,0.40
2019-02-18T06:01:41.387Z,0.30
2019-02-18T06:04:22.282Z,0.40
2019-02-18T06:07:03.087Z,0.30
2019-02-18T06:09:43.800Z,0.30
2019-02-18T06:12:23.496Z,0.30
2019-02-18T06:15:04.809Z,0.40
2019-02-18T06:17:45.320Z,0.40
2019-02-18T06:20:26.432Z,0.30
2019-02-18T06:23:07.060Z,0.30
2019-02-18T06:25:47.727Z,0.30
2019-02-18T06:28:28.458Z,0.30
2019-02-18T06:31:09.242Z,0.40
2019-02-18T06:33:50.239Z,0.40
2019-02-18T06:36:31.017Z,0.40
2019-02-18T06:39:11.632Z,0.30
2019-02-18T06:41:52.380Z,0.30
2019-02-18T06:44:52.087Z,0.30
2019-02-18T06:47:33.435Z,0.40
2019-02-18T06:50:14.163Z,0.30
2019-02-18T06:52:54.973Z,0.40
2019-02-18T06:55:35.848Z,0.40
2019-02-18T07:01:30.325Z,0.60
2019-02-18T07:04:21.993Z,0.60
2019-02-18T07:07:23.359Z,0.60
2019-02-18T07:12:55.180Z,0.80
2019-02-18T07:15:36.439Z,0.90
2019-02-18T07:18:17.292Z,0.90
2019-02-18T07:20:58.482Z,1.10
2019-02-18T07:23:39.337Z,1.30
2019-02-18T07:26:20.950Z,1.60
2019-02-18T07:29:01.744Z,1.90
2019-02-18T07:31:43.064Z,2.20
2019-02-18T07:34:23.993Z,2.50
2019-02-18T07:37:04.802Z,2.80
2019-02-18T07:39:45.541Z,3.00
2019-02-18T07:42:26.027Z,3.20
2019-02-18T07:45:06.656Z,3.60
2019-02-18T07:47:47.058Z,3.90
2019-02-18T07:50:28.376Z,4.30
2019-02-18T07:53:09.403Z,4.70
2019-02-18T07:55:50.596Z,5.10
2019-02-18T07:58:31.907Z,5.50
2019-02-18T08:01:12.615Z,5.90
2019-02-18T08:03:53.347Z,6.10
2019-02-18T08:06:34.326Z,6.30
2019-02-18T08:09:15.280Z,6.50
2019-02-18T08:11:56.151Z,6.50
2019-02-18T08:14:37.207Z,6.70
2019-02-18T08:17:18.043Z,6.70
2019-02-18T08:19:58.936Z,6.90
2019-02-18T08:22:39.482Z,7.00
2019-02-18T08:25:20.650Z,7.20
2019-02-18T08:28:01.434Z,7.20
2019-02-18T08:30:42.189Z,7.20
2019-02-18T08:33:22.996Z,7.40
2019-02-18T08:36:03.720Z,7.50
2019-02-18T08:38:44.383Z,7.60
2019-02-18T08:41:25.160Z,7.70
2019-02-18T08:44:05.543Z,8.10
2019-02-18T08:46:46.271Z,8.40
2019-02-18T08:49:25.830Z,8.40
2019-02-18T08:52:06.878Z,8.40
2019-02-18T08:54:56.243Z,8.40
2019-02-18T08:57:30.537Z,8.50
2019-02-18T09:00:11.104Z,8.70
2019-02-18T09:05:30.435Z,9.10
2019-02-18T09:08:10.912Z,9.40
2019-02-18T09:10:52.222Z,9.40
2019-02-18T09:13:33.002Z,9.30
2019-02-18T09:16:13.969Z,9.20
2019-02-18T09:18:54.700Z,9.50
2019-02-18T09:21:35.925Z,9.80
2019-02-18T09:24:20.877Z,10.00
2019-02-18T09:27:01.589Z,10.20
2019-02-18T09:29:42.138Z,10.60
2019-02-18T09:32:22.925Z,10.60
2019-02-18T09:35:03.614Z,10.50
2019-02-18T09:37:44.338Z,10.60
2019-02-18T09:40:13.471Z,10.80
2019-02-18T09:43:01.771Z,11.00
2019-02-18T09:45:49.936Z,11.10
2019-02-18T09:48:19.072Z,11.20
2019-02-18T09:50:48.148Z,11.10
2019-02-18T09:53:29.486Z,11.10
2019-02-18T09:56:10.792Z,11.30
2019-02-18T09:58:51.907Z,11.30
2019-02-18T10:01:34.329Z,11.40
2019-02-18T10:04:15.480Z,11.40
2019-02-18T10:06:56.207Z,11.50
2019-02-18T10:09:36.692Z,11.20
2019-02-18T10:12:18.665Z,11.50
2019-02-18T10:14:59.493Z,11.80
2019-02-18T10:20:19.096Z,11.80
2019-02-18T10:22:59.940Z,11.70
2019-02-18T10:25:41.315Z,11.70
2019-02-18T10:31:00.878Z,12.10
2019-02-18T10:33:41.361Z,12.60
2019-02-18T10:36:22.001Z,12.90
2019-02-18T10:39:04.338Z,13.20
2019-02-18T10:41:45.560Z,13.30
2019-02-18T10:44:26.658Z,13.40
2019-02-18T10:47:07.648Z,13.50
2019-02-18T10:49:48.846Z,13.30
2019-02-18T10:52:29.395Z,13.40
2019-02-18T10:55:10.121Z,13.70
2019-02-18T10:57:50.997Z,13.70
2019-02-18T11:00:32.004Z,13.70
2019-02-18T11:03:12.593Z,13.80
2019-02-18T11:05:53.476Z,13.90
2019-02-18T11:08:34.023Z,14.10
2019-02-18T11:11:17.000Z,14.30
2019-02-18T11:13:57.517Z,14.40
2019-02-18T11:16:38.480Z,14.40
2019-02-18T11:19:07.593Z,14.60
2019-02-18T11:21:55.748Z,14.80
2019-02-18T11:24:36.941Z,14.70
2019-02-18T11:27:18.024Z,14.60
2019-02-18T11:29:58.733Z,14.70
2019-02-18T11:32:38.451Z,14.80
2019-02-18T11:35:19.570Z,14.90
2019-02-18T11:38:00.890Z,14.90
2019-02-18T11:40:41.818Z,14.80
2019-02-18T11:43:22.602Z,14.90
2019-02-18T11:46:03.787Z,14.90
2019-02-18T11:48:44.314Z,14.80
2019-02-18T11:51:25.443Z,14.60
2019-02-18T11:54:05.326Z,14.50
2019-02-18T11:56:46.136Z,14.60
2019-02-18T11:59:26.763Z,14.70
2019-02-18T12:02:07.591Z,14.80
2019-02-18T12:04:48.486Z,14.80
2019-02-18T12:07:28.918Z,14.80
2019-02-18T12:10:10.165Z,14.90
2019-02-18T12:12:51.291Z,14.90
2019-02-18T12:15:32.112Z,14.90
2019-02-18T12:18:13.861Z,15.00
2019-02-18T12:20:54.450Z,15.10
2019-02-18T12:23:35.412Z,15.20
2019-02-18T12:26:16.153Z,15.20
2019-02-18T12:28:57.268Z,15.20
2019-02-18T12:31:38.122Z,15.20
2019-02-18T12:34:18.852Z,15.20
2019-02-18T12:36:59.737Z,15.20
2019-02-18T12:39:40.359Z,15.20
2019-02-18T12:42:21.464Z,15.20
2019-02-18T12:45:02.202Z,15.30
2019-02-18T12:47:43.129Z,15.40
2019-02-18T12:50:23.994Z,15.50
2019-02-18T12:53:06.073Z,15.60
2019-02-18T12:55:46.511Z,15.60
2019-02-18T12:58:27.664Z,15.70
2019-02-18T13:01:09.180Z,15.70
2019-02-18T13:03:50.496Z,15.70
2019-02-18T13:06:31.133Z,15.70
2019-02-18T13:09:12.352Z,15.70
2019-02-18T13:11:59.005Z,15.70
2019-02-18T13:14:36.592Z,15.60
2019-02-18T13:17:17.494Z,15.60
2019-02-18T13:19:58.196Z,15.60
2019-02-18T13:22:39.230Z,15.60
2019-02-18T13:25:20.317Z,15.70
2019-02-18T13:28:08.317Z,15.70
2019-02-18T13:30:43.547Z,15.70
2019-02-18T13:33:23.099Z,15.80
2019-02-18T13:36:04.447Z,15.90
2019-02-18T13:38:44.972Z,16.00
2019-02-18T13:41:26.193Z,16.00
2019-02-18T13:44:07.081Z,16.00
2019-02-18T13:46:47.918Z,16.10
2019-02-18T13:49:28.726Z,16.10
2019-02-18T13:52:08.610Z,16.10
2019-02-18T13:57:27.970Z,15.90
2019-02-18T14:00:09.809Z,15.90
2019-02-18T14:02:51.123Z,15.90
2019-02-18T14:05:31.846Z,16.00
2019-02-18T14:08:12.648Z,16.10
2019-02-18T14:10:53.427Z,16.10
2019-02-18T14:13:34.255Z,16.20
2019-02-18T14:16:15.220Z,16.20
2019-02-18T14:18:55.752Z,16.10
2019-02-18T14:21:35.487Z,16.10
2019-02-18T14:24:16.806Z,16.10
2019-02-18T14:26:57.533Z,16.10
2019-02-18T14:29:38.281Z,16.00
2019-02-18T14:32:19.514Z,16.00
2019-02-18T14:35:00.309Z,16.00
2019-02-18T14:37:41.075Z,16.00
2019-02-18T14:40:22.266Z,16.00
2019-02-18T14:43:03.316Z,15.90
2019-02-18T14:45:44.665Z,15.80
2019-02-18T14:48:25.387Z,15.70
2019-02-18T14:51:06.153Z,15.80
2019-02-18T14:53:47.104Z,15.70
2019-02-18T14:56:28.063Z,15.70
2019-02-18T14:59:08.937Z,15.60
2019-02-18T15:01:38.142Z,15.50
2019-02-18T15:04:26.315Z,15.50
2019-02-18T15:07:07.583Z,15.40
2019-02-18T15:09:48.260Z,15.40
2019-02-18T15:12:18.390Z,15.40
2019-02-18T15:15:06.640Z,15.40
2019-02-18T15:17:47.874Z,15.40
2019-02-18T15:20:28.548Z,15.40
2019-02-18T15:23:09.350Z,15.30
2019-02-18T15:25:50.287Z,15.30
2019-02-18T15:28:30.820Z,15.30
2019-02-18T15:33:50.311Z,15.20
2019-02-18T15:36:30.987Z,15.20
2019-02-18T15:39:11.656Z,15.10
2019-02-18T15:41:54.141Z,15.10
2019-02-18T15:44:35.245Z,15.00
2019-02-18T15:47:16.452Z,15.00
2019-02-18T15:49:56.042Z,15.00
2019-02-18T15:52:37.326Z,14.90
2019-02-18T15:55:18.689Z,14.80
2019-02-18T15:57:59.342Z,14.80
2019-02-18T16:00:39.178Z,14.70
2019-02-18T16:03:20.450Z,14.50
2019-02-18T16:06:01.426Z,14.40
2019-02-18T16:08:42.354Z,14.20
2019-02-18T16:11:23.009Z,14.00
2019-02-18T16:14:03.903Z,13.90
2019-02-18T16:16:45.664Z,13.70
2019-02-18T16:19:26.508Z,13.60
2019-02-18T16:22:07.391Z,13.40
2019-02-18T16:24:49.070Z,13.30
2019-02-18T16:27:29.910Z,13.10
2019-02-18T16:30:10.895Z,12.90
2019-02-18T16:32:52.581Z,12.70
2019-02-18T16:35:33.377Z,12.50
2019-02-18T16:38:14.288Z,12.30
2019-02-18T16:40:55.183Z,12.10
2019-02-18T16:43:36.012Z,11.90
2019-02-18T16:46:16.725Z,11.80
2019-02-18T16:48:57.990Z,11.60
2019-02-18T16:51:38.792Z,11.50
2019-02-18T16:54:19.659Z,11.30
2019-02-18T16:57:00.685Z,11.10
2019-02-18T16:59:41.497Z,10.90
2019-02-18T17:02:22.916Z,10.70
2019-02-18T17:05:03.708Z,10.60
2019-02-18T17:07:44.848Z,10.50
2019-02-18T17:10:25.511Z,10.30
2019-02-18T17:13:10.018Z,10.20
2019-02-18T17:15:49.205Z,10.00
2019-02-18T17:18:29.705Z,9.90
2019-02-18T17:21:11.086Z,9.80
2019-02-18T17:23:51.689Z,9.70
2019-02-18T17:29:11.090Z,9.50
2019-02-18T17:31:50.782Z,9.40
2019-02-18T17:34:32.017Z,9.20
2019-02-18T17:37:12.751Z,9.10
2019-02-18T17:39:53.696Z,9.10
2019-02-18T17:42:34.661Z,9.20
2019-02-18T17:45:15.394Z,9.10
2019-02-18T17:47:56.477Z,9.00
2019-02-18T17:50:37.303Z,8.80
2019-02-18T17:53:18.062Z,8.70
2019-02-18T17:55:59.129Z,8.40
2019-02-18T17:58:40.498Z,8.40
2019-02-18T18:04:01.410Z,8.10
2019-02-18T18:06:42.780Z,8.00
2019-02-18T18:09:24.247Z,7.90
2019-02-18T18:12:05.001Z,7.90
2019-02-18T18:14:45.962Z,7.80
2019-02-18T18:17:26.734Z,7.70
2019-02-18T18:20:08.481Z,7.60
2019-02-18T18:25:38.794Z,7.50
2019-02-18T18:28:19.916Z,7.40
2019-02-18T18:31:01.395Z,7.40
2019-02-18T18:33:42.225Z,7.20
2019-02-18T18:36:23.100Z,7.10
2019-02-18T18:39:03.605Z,7.00
2019-02-18T18:41:45.012Z,6.90
2019-02-18T18:44:26.368Z,6.90
2019-02-18T18:47:07.105Z,6.90
2019-02-18T18:49:47.865Z,6.80
2019-02-18T18:52:28.810Z,6.80
2019-02-18T18:55:09.563Z,6.70
2019-02-18T18:57:50.378Z,6.60
2019-02-18T19:00:31.310Z,6.50
2019-02-18T19:03:12.710Z,6.50
2019-02-18T19:05:53.464Z,6.40
2019-02-18T19:08:34.402Z,6.30
2019-02-18T19:13:54.324Z,6.20
2019-02-18T19:16:35.359Z,6.10
2019-02-18T19:19:16.522Z,6.10
2019-02-18T19:21:57.776Z,6.20
2019-02-18T19:24:38.238Z,6.10
2019-02-18T19:27:19.541Z,6.00
2019-02-18T19:30:00.733Z,5.80
2019-02-18T19:32:42.031Z,5.70
2019-02-18T19:35:23.262Z,5.60
2019-02-18T19:38:04.186Z,5.60
2019-02-18T19:40:44.899Z,5.50
2019-02-18T19:43:25.829Z,5.50
2019-02-18T19:46:06.472Z,5.50
2019-02-18T19:48:47.506Z,5.40
2019-02-18T19:51:28.309Z,5.40
2019-02-18T19:54:09.354Z,5.30
2019-02-18T19:56:50.688Z,5.20
2019-02-18T19:59:31.426Z,5.10
2019-02-18T20:02:12.292Z,5.00
2019-02-18T20:04:41.504Z,5.00
2019-02-18T20:07:23.242Z,4.90
2019-02-18T20:10:03.804Z,4.90
2019-02-18T20:12:44.607Z,5.00
2019-02-18T20:15:25.364Z,5.00
2019-02-18T20:17:54.470Z,5.00
2019-02-18T20:20:42.660Z,5.00
2019-02-18T20:23:25.625Z,5.00
2019-02-18T20:26:06.598Z,5.00
2019-02-18T20:28:47.297Z,4.90
2019-02-18T20:31:28.308Z,4.90
2019-02-18T20:34:09.337Z,4.90
2019-02-18T20:36:50.203Z,4.80
2019-02-18T20:39:30.744Z,4.70
2019-02-18T20:44:50.165Z,4.70
2019-02-18T20:50:15.769Z,4.80
2019-02-18T20:52:56.394Z,4.70
2019-02-18T20:55:37.096Z,4.70
2019-02-18T20:58:17.914Z,4.70
2019-02-18T21:00:58.880Z,4.70
2019-02-18T21:03:39.732Z,4.60
2019-02-18T21:06:20.417Z,4.60
2019-02-18T21:11:45.996Z,4.50
2019-02-18T21:14:27.007Z,4.40
2019-02-18T21:17:08.115Z,4.20
2019-02-18T21:19:48.617Z,4.10
2019-02-18T21:22:29.501Z,4.10
2019-02-18T21:25:10.414Z,4.10
2019-02-18T21:30:30.004Z,4.10
2019-02-18T21:33:11.160Z,4.00
2019-02-18T21:35:52.405Z,3.90
2019-02-18T21:38:33.500Z,3.90
2019-02-18T21:41:14.528Z,3.90
2019-02-18T21:43:55.214Z,3.90
2019-02-18T21:46:35.968Z,3.90
2019-02-18T21:49:16.822Z,3.90
2019-02-18T21:51:57.332Z,3.90
2019-02-18T21:54:38.547Z,3.80
2019-02-18T21:57:19.118Z,3.80
2019-02-18T21:59:59.890Z,3.80
2019-02-18T22:02:40.887Z,3.80
2019-02-18T22:05:21.776Z,3.80
2019-02-18T22:08:02.660Z,3.80
2019-02-18T22:10:43.863Z,3.80
2019-02-18T22:13:25.259Z,3.70
2019-02-18T22:16:06.128Z,3.70
2019-02-18T22:18:46.635Z,3.70
2019-02-18T22:21:27.357Z,3.60
2019-02-18T22:24:08.368Z,3.60
2019-02-18T22:26:49.186Z,3.40
2019-02-18T22:29:29.931Z,3.40
2019-02-18T22:32:10.881Z,3.50
2019-02-18T22:34:51.494Z,3.50
2019-02-18T22:37:32.226Z,3.50
2019-02-18T22:40:02.545Z,3.30
2019-02-18T22:42:50.714Z,3.30
2019-02-18T22:45:31.244Z,3.30
2019-02-18T22:48:11.927Z,3.30
2019-02-18T22:50:52.767Z,3.40
2019-02-18T22:53:34.094Z,3.30
2019-02-18T22:56:14.835Z,3.20
2019-02-18T22:58:55.273Z,3.10
2019-02-18T23:01:35.914Z,3.10
2019-02-18T23:04:16.680Z,3.00
2019-02-18T23:06:57.384Z,3.10
2019-02-18T23:09:38.379Z,3.10
2019-02-18T23:12:19.208Z,3.00
2019-02-18T23:14:59.894Z,3.00
2019-02-18T23:17:40.772Z,3.10
2019-02-18T23:20:21.612Z,2.90
2019-02-18T23:23:02.528Z,2.90
2019-02-18T23:25:43.555Z,2.80
2019-02-18T23:28:24.459Z,2.80
2019-02-18T23:31:05.405Z,2.80
2019-02-18T23:33:46.528Z,2.80
2019-02-18T23:36:27.108Z,2.80
2019-02-18T23:39:07.722Z,2.80
2019-02-18T23:41:48.559Z,2.80
2019-02-18T23:44:29.322Z,2.70
2019-02-18T23:47:10.175Z,2.70
2019-02-18T23:49:51.084Z,2.60
2019-02-18T23:52:31.958Z,2.60
2019-02-18T23:55:12.659Z,2.70
2019-02-18T23:57:53.491Z,2.70
